createdAt,value
2022-12-03T00:02:26.214Z,1.23
2022-12-03T00:04:54.463Z,1.24
2022-12-03T00:07:22.653Z,1.17
2022-12-03T00:09:50.644Z,1.17
2022-12-03T00:12:19.971Z,1.14
2022-12-03T00:14:47.898Z,1.16
2022-12-03T00:17:15.899Z,1.12
2022-12-03T00:19:43.874Z,1.08
2022-12-03T00:22:12.948Z,1.02
2022-12-03T00:24:41.036Z,1.09
2022-12-03T00:27:09.242Z,1.02
2022-12-03T00:29:38.655Z,1.05
2022-12-03T00:32:06.964Z,1.03
2022-12-03T00:34:34.899Z,0.99
2022-12-03T00:37:02.863Z,1.02
2022-12-03T00:39:30.844Z,1.01
2022-12-03T00:41:59.642Z,1.03
2022-12-03T00:44:27.931Z,1.02
2022-12-03T00:46:57.311Z,0.96
2022-12-03T00:49:25.328Z,0.93
2022-12-03T00:51:53.421Z,0.91
2022-12-03T00:54:24.472Z,0.94
2022-12-03T00:56:54.876Z,0.94
2022-12-03T00:59:22.888Z,0.95
2022-12-03T01:01:50.976Z,0.92
2022-12-03T01:04:20.458Z,0.93
2022-12-03T01:06:48.495Z,0.90
2022-12-03T01:09:16.465Z,0.92
2022-12-03T01:11:44.462Z,0.82
2022-12-03T01:14:14.665Z,0.83
2022-12-03T01:16:43.317Z,0.72
2022-12-03T01:19:15.713Z,0.81
2022-12-03T01:21:45.992Z,0.76
2022-12-03T01:24:14.430Z,0.74
2022-12-03T01:26:42.400Z,0.72
2022-12-03T01:29:10.711Z,0.60
2022-12-03T01:31:56.624Z,0.44
2022-12-03T01:34:24.713Z,0.61
2022-12-03T01:36:54.105Z,0.55
2022-12-03T01:39:22.185Z,0.51
2022-12-03T01:41:51.591Z,0.46
2022-12-03T01:44:23.513Z,0.43
2022-12-03T01:46:52.895Z,0.47
2022-12-03T01:49:24.224Z,0.42
2022-12-03T01:51:54.735Z,0.40
2022-12-03T01:54:28.200Z,0.45
2022-12-03T01:56:56.608Z,0.43
2022-12-03T01:59:33.997Z,0.41
2022-12-03T02:02:12.992Z,0.41
2022-12-03T02:04:41.037Z,0.44
2022-12-03T02:07:26.177Z,0.42
2022-12-03T02:09:55.783Z,0.42
2022-12-03T02:12:29.707Z,0.36
2022-12-03T02:14:58.271Z,0.41
2022-12-03T02:17:26.826Z,0.39
2022-12-03T02:19:56.007Z,0.39
2022-12-03T02:22:35.408Z,0.40
2022-12-03T02:25:24.239Z,0.41
2022-12-03T02:27:55.111Z,0.37
2022-12-03T02:30:25.614Z,0.34
2022-12-03T02:32:54.999Z,0.36
2022-12-03T02:35:25.142Z,0.34
2022-12-03T02:37:59.303Z,0.32
2022-12-03T02:40:32.128Z,0.25
2022-12-03T02:43:01.274Z,0.25
2022-12-03T02:45:32.270Z,0.32
2022-12-03T02:48:03.612Z,0.32
2022-12-03T02:50:34.963Z,0.26
2022-12-03T02:53:06.755Z,0.23
2022-12-03T02:55:37.892Z,0.22
2022-12-03T02:58:06.586Z,0.15
2022-12-03T03:00:36.456Z,0.16
2022-12-03T03:03:06.386Z,0.12
2022-12-03T03:05:35.227Z,0.14
2022-12-03T03:08:04.022Z,0.12
2022-12-03T03:10:36.915Z,0.11
2022-12-03T03:13:08.619Z,0.13
2022-12-03T03:15:37.416Z,0.14
2022-12-03T03:18:06.131Z,0.15
2022-12-03T03:20:34.170Z,0.10
2022-12-03T03:23:08.065Z,0.11
2022-12-03T03:25:38.096Z,0.11
2022-12-03T03:28:06.940Z,0.11
2022-12-03T03:30:36.424Z,0.09
2022-12-03T03:33:04.410Z,0.04
2022-12-03T03:35:32.644Z,0.01
2022-12-03T03:38:01.108Z,0.00
2022-12-03T03:40:29.503Z,0.00
2022-12-03T03:42:59.242Z,0.00
2022-12-03T03:45:29.528Z,-0.02
2022-12-03T03:47:59.058Z,-0.03
2022-12-03T03:50:28.695Z,0.03
2022-12-03T03:52:57.766Z,-0.09
2022-12-03T03:55:26.056Z,-0.04
2022-12-03T03:57:54.209Z,-0.06
2022-12-03T04:00:23.697Z,-0.12
2022-12-03T04:02:53.006Z,-0.09
2022-12-03T04:05:23.416Z,-0.11
2022-12-03T04:07:52.143Z,-0.19
2022-12-03T04:10:37.670Z,-0.14
2022-12-03T04:13:06.359Z,-0.12
2022-12-03T04:15:35.640Z,-0.14
2022-12-03T04:18:20.893Z,-0.16
2022-12-03T04:20:48.879Z,-0.21
2022-12-03T04:23:15.815Z,-0.18
2022-12-03T04:26:01.102Z,-0.17
2022-12-03T04:28:46.689Z,-0.20
2022-12-03T04:31:38.876Z,-0.15
2022-12-03T04:34:24.422Z,-0.15
2022-12-03T04:36:52.406Z,-0.10
2022-12-03T04:39:20.882Z,-0.16
2022-12-03T04:41:48.870Z,-0.15
2022-12-03T04:44:36.171Z,-0.15
2022-12-03T04:47:08.624Z,-0.14
2022-12-03T04:49:38.213Z,-0.16
2022-12-03T04:52:06.336Z,-0.20
2022-12-03T04:54:34.754Z,-0.17
2022-12-03T04:57:03.336Z,-0.14
2022-12-03T04:59:31.682Z,-0.21
2022-12-03T05:01:59.708Z,-0.21
2022-12-03T05:04:29.280Z,-0.16
2022-12-03T05:06:57.363Z,-0.18
2022-12-03T05:09:25.472Z,-0.24
2022-12-03T05:11:53.396Z,-0.27
2022-12-03T05:14:21.304Z,-0.21
2022-12-03T05:16:49.412Z,-0.22
2022-12-03T05:19:17.367Z,-0.22
2022-12-03T05:21:45.707Z,-0.23
2022-12-03T05:24:13.664Z,-0.25
2022-12-03T05:26:41.641Z,-0.28
2022-12-03T05:29:09.653Z,-0.22
2022-12-03T05:31:37.595Z,-0.20
2022-12-03T05:34:05.973Z,-0.25
2022-12-03T05:36:33.972Z,-0.18
2022-12-03T05:39:03.297Z,-0.21
2022-12-03T05:41:49.048Z,-0.11
2022-12-03T05:44:20.510Z,-0.20
2022-12-03T05:46:48.937Z,-0.14
2022-12-03T05:49:16.916Z,-0.16
2022-12-03T05:51:44.887Z,-0.17
2022-12-03T05:54:14.223Z,-0.21
2022-12-03T05:56:42.341Z,-0.16
2022-12-03T05:59:10.272Z,-0.22
2022-12-03T06:01:38.202Z,-0.24
2022-12-03T06:04:06.620Z,-0.25
2022-12-03T06:06:34.588Z,-0.22
2022-12-03T06:09:02.585Z,-0.28
2022-12-03T06:11:34.147Z,-0.35
2022-12-03T06:14:02.359Z,-0.28
2022-12-03T06:16:30.465Z,-0.31
2022-12-03T06:18:58.825Z,-0.34
2022-12-03T06:21:26.787Z,0.47
2022-12-03T06:23:54.736Z,1.88
2022-12-03T06:26:22.762Z,3.01
2022-12-03T06:28:52.068Z,3.17
2022-12-03T06:31:20.183Z,3.10
2022-12-03T06:33:48.289Z,2.92
2022-12-03T06:36:21.407Z,2.21
2022-12-03T06:38:50.882Z,1.48
2022-12-03T06:41:18.820Z,0.80
2022-12-03T06:43:46.741Z,0.64
2022-12-03T06:46:16.151Z,0.48
2022-12-03T06:48:44.175Z,0.28
2022-12-03T06:51:12.093Z,0.23
2022-12-03T06:53:40.030Z,0.07
2022-12-03T06:56:08.441Z,-0.02
2022-12-03T06:58:36.426Z,-0.09
2022-12-03T07:01:04.463Z,-0.14
2022-12-03T07:03:33.851Z,-0.15
2022-12-03T07:06:01.906Z,-0.20
2022-12-03T07:08:29.912Z,-0.24
2022-12-03T07:10:57.906Z,-0.24
2022-12-03T07:13:25.925Z,-0.20
2022-12-03T07:15:53.943Z,-0.17
2022-12-03T07:18:21.931Z,-0.23
2022-12-03T07:20:51.239Z,-0.21
2022-12-03T07:23:19.221Z,-0.24
2022-12-03T07:26:02.938Z,-0.28
2022-12-03T07:28:30.892Z,-0.28
2022-12-03T07:30:58.959Z,-0.25
2022-12-03T07:33:27.066Z,-0.25
2022-12-03T07:35:56.543Z,-0.27
2022-12-03T07:38:24.710Z,-0.22
2022-12-03T07:40:52.718Z,-0.23
2022-12-03T07:43:20.667Z,-0.22
2022-12-03T07:45:49.462Z,-0.28
2022-12-03T07:48:17.457Z,-0.25
2022-12-03T07:50:45.458Z,-0.26
2022-12-03T07:53:14.788Z,-0.25
2022-12-03T07:55:42.775Z,-0.28
2022-12-03T07:58:10.734Z,-0.24
2022-12-03T08:00:38.838Z,-0.19
2022-12-03T08:03:06.835Z,-0.18
2022-12-03T08:05:34.957Z,-0.21
2022-12-03T08:08:02.986Z,-0.20
2022-12-03T08:10:32.431Z,-0.23
2022-12-03T08:13:01.045Z,-0.18
2022-12-03T08:15:36.913Z,-0.21
2022-12-03T08:18:14.444Z,-0.17
2022-12-03T08:20:43.890Z,-0.17
2022-12-03T08:23:15.856Z,-0.16
2022-12-03T08:25:46.620Z,-0.16
2022-12-03T08:28:18.833Z,-0.11
2022-12-03T08:30:59.928Z,-0.18
2022-12-03T08:33:30.044Z,-0.14
2022-12-03T08:35:58.064Z,-0.12
2022-12-03T08:38:26.197Z,-0.13
2022-12-03T08:40:56.324Z,-0.06
2022-12-03T08:43:26.257Z,0.01
2022-12-03T08:45:55.610Z,0.04
2022-12-03T08:48:28.240Z,0.05
2022-12-03T08:50:57.985Z,0.10
2022-12-03T08:53:34.271Z,0.05
2022-12-03T08:56:05.963Z,0.01
2022-12-03T08:58:42.055Z,0.00
2022-12-03T09:01:31.250Z,0.10
2022-12-03T09:04:12.061Z,0.13
2022-12-03T09:06:40.044Z,0.15
2022-12-03T09:09:07.977Z,0.14
2022-12-03T09:11:37.492Z,0.21
2022-12-03T09:14:06.052Z,0.06
2022-12-03T09:16:34.114Z,0.17
2022-12-03T09:19:02.396Z,0.16
2022-12-03T09:21:30.376Z,0.20
2022-12-03T09:23:58.391Z,0.24
2022-12-03T09:26:27.205Z,0.27
2022-12-03T09:28:56.704Z,0.22
2022-12-03T09:31:24.731Z,0.28
2022-12-03T09:33:52.779Z,0.32
2022-12-03T09:36:20.846Z,0.28
2022-12-03T09:38:48.840Z,0.37
2022-12-03T09:41:16.959Z,0.39
2022-12-03T09:46:36.695Z,0.31
2022-12-03T09:49:10.941Z,0.38
2022-12-03T09:51:45.022Z,0.36
2022-12-03T09:54:23.796Z,0.46
2022-12-03T09:56:52.278Z,0.48
2022-12-03T09:59:20.752Z,0.44
2022-12-03T10:01:50.620Z,0.52
2022-12-03T10:04:18.999Z,0.57
2022-12-03T10:06:47.212Z,0.40
2022-12-03T10:09:20.786Z,0.51
2022-12-03T10:11:48.973Z,0.46
2022-12-03T10:14:20.182Z,0.50
2022-12-03T10:16:48.365Z,0.54
2022-12-03T10:19:24.402Z,0.52
2022-12-03T10:21:52.846Z,0.60
2022-12-03T10:24:28.633Z,0.57
2022-12-03T10:26:58.876Z,0.65
2022-12-03T10:29:33.507Z,0.63
2022-12-03T10:32:03.413Z,0.73
2022-12-03T10:34:35.002Z,0.71
2022-12-03T10:37:17.868Z,0.74
2022-12-03T10:40:00.798Z,0.62
2022-12-03T10:42:30.711Z,0.66
2022-12-03T10:45:15.626Z,0.63
2022-12-03T10:47:44.907Z,0.66
2022-12-03T10:50:20.410Z,0.64
2022-12-03T10:52:48.682Z,0.56
2022-12-03T10:55:17.410Z,0.50
2022-12-03T10:57:47.005Z,0.55
2022-12-03T11:00:19.778Z,0.48
2022-12-03T11:02:56.185Z,0.36
2022-12-03T11:05:28.000Z,0.36
2022-12-03T11:07:56.904Z,0.42
2022-12-03T11:10:25.479Z,0.42
2022-12-03T11:13:28.828Z,0.50
2022-12-03T11:15:58.026Z,0.55
2022-12-03T11:19:01.226Z,0.58
2022-12-03T11:21:31.336Z,0.52
2022-12-03T11:24:16.219Z,0.58
2022-12-03T11:27:27.023Z,0.58
2022-12-03T11:30:00.892Z,0.58
2022-12-03T11:33:06.243Z,0.46
2022-12-03T11:36:15.336Z,0.57
2022-12-03T11:38:53.617Z,0.38
2022-12-03T11:41:27.710Z,0.34
2022-12-03T11:44:30.188Z,0.28
2022-12-03T11:47:00.612Z,0.27
2022-12-03T11:49:41.112Z,0.41
2022-12-03T11:52:24.915Z,0.20
2022-12-03T11:54:59.348Z,0.21
2022-12-03T11:57:31.592Z,0.36
2022-12-03T12:00:02.424Z,0.36
2022-12-03T12:02:30.369Z,0.38
2022-12-03T12:04:58.430Z,0.34
2022-12-03T12:07:35.613Z,0.27
2022-12-03T12:10:05.566Z,0.25
2022-12-03T12:12:39.723Z,0.38
2022-12-03T12:15:43.295Z,0.43
2022-12-03T12:18:37.459Z,0.52
2022-12-03T12:21:40.312Z,0.48
2022-12-03T12:24:36.016Z,0.55
2022-12-03T12:27:07.779Z,0.43
2022-12-03T12:29:36.460Z,0.39
2022-12-03T12:32:15.043Z,0.25
2022-12-03T12:34:45.097Z,0.30
2022-12-03T12:37:14.270Z,0.27
2022-12-03T12:39:42.467Z,0.29
2022-12-03T12:42:29.790Z,0.31
2022-12-03T12:45:02.316Z,0.31
2022-12-03T12:47:32.011Z,0.34
2022-12-03T12:50:00.346Z,0.31
2022-12-03T12:52:28.654Z,0.20
2022-12-03T12:55:00.222Z,0.23
2022-12-03T12:57:34.813Z,0.30
2022-12-03T13:00:05.771Z,0.24
2022-12-03T13:02:45.813Z,0.47
2022-12-03T13:05:14.683Z,0.36
2022-12-03T13:07:44.068Z,0.35
2022-12-03T13:10:28.524Z,0.27
2022-12-03T13:12:58.581Z,0.93
2022-12-03T13:15:39.837Z,1.43
2022-12-03T13:18:28.519Z,1.61
2022-12-03T13:20:56.904Z,1.84
2022-12-03T13:23:31.666Z,1.67
2022-12-03T13:26:16.207Z,1.54
2022-12-03T13:28:52.698Z,2.04
2022-12-03T13:31:26.650Z,1.17
2022-12-03T13:33:55.799Z,1.01
2022-12-03T13:36:28.979Z,0.86
2022-12-03T13:38:56.994Z,0.67
2022-12-03T13:41:42.330Z,0.59
2022-12-03T13:44:20.927Z,0.60
2022-12-03T13:46:49.042Z,0.48
2022-12-03T13:49:21.419Z,0.52
2022-12-03T13:51:50.248Z,0.48
2022-12-03T13:54:22.205Z,0.91
2022-12-03T13:56:51.045Z,1.32
2022-12-03T13:59:25.771Z,1.09
2022-12-03T14:01:54.464Z,1.06
2022-12-03T14:04:22.655Z,1.16
2022-12-03T14:06:50.686Z,0.90
2022-12-03T14:09:18.617Z,0.90
2022-12-03T14:12:03.934Z,1.04
2022-12-03T14:14:33.231Z,0.94
2022-12-03T14:17:01.323Z,1.02
2022-12-03T14:19:29.315Z,0.82
2022-12-03T14:21:57.269Z,1.01
2022-12-03T14:24:25.310Z,1.00
2022-12-03T14:26:53.445Z,1.07
2022-12-03T14:29:21.486Z,0.85
2022-12-03T14:31:50.890Z,0.60
2022-12-03T14:34:18.920Z,0.60
2022-12-03T14:36:46.873Z,0.69
2022-12-03T14:39:14.796Z,0.69
2022-12-03T14:42:00.106Z,0.46
2022-12-03T14:44:28.032Z,0.43
2022-12-03T14:46:57.734Z,0.35
2022-12-03T14:49:26.271Z,0.63
2022-12-03T14:51:54.415Z,0.27
2022-12-03T14:54:22.890Z,0.38
2022-12-03T14:56:51.006Z,0.30
2022-12-03T14:59:24.401Z,0.34
2022-12-03T15:01:56.897Z,0.40
2022-12-03T15:04:24.906Z,0.53
2022-12-03T15:06:52.895Z,0.56
2022-12-03T15:09:21.133Z,0.52
2022-12-03T15:11:49.079Z,0.61
2022-12-03T15:14:17.073Z,0.65
2022-12-03T15:16:45.220Z,0.74
2022-12-03T15:19:14.582Z,0.85
2022-12-03T15:21:42.564Z,0.68
2022-12-03T15:24:10.769Z,0.72
2022-12-03T15:26:38.722Z,0.78
2022-12-03T15:29:06.742Z,0.78
2022-12-03T15:31:34.900Z,0.66
2022-12-03T15:34:02.925Z,0.78
2022-12-03T15:36:32.304Z,0.66
2022-12-03T15:39:00.283Z,0.63
2022-12-03T15:41:29.929Z,0.72
2022-12-03T15:43:59.458Z,0.62
2022-12-03T15:46:28.308Z,0.51
2022-12-03T15:48:56.821Z,0.62
2022-12-03T15:51:25.052Z,2.08
2022-12-03T15:53:54.377Z,3.04
2022-12-03T15:56:22.403Z,2.77
2022-12-03T15:58:50.437Z,2.50
2022-12-03T16:01:18.666Z,3.19
2022-12-03T16:03:46.684Z,2.53
2022-12-03T16:06:14.856Z,2.19
2022-12-03T16:08:42.860Z,1.88
2022-12-03T16:11:12.156Z,1.25
2022-12-03T16:13:40.129Z,1.13
2022-12-03T16:16:08.477Z,1.18
2022-12-03T16:18:36.510Z,1.08
2022-12-03T16:21:04.633Z,1.21
2022-12-03T16:23:32.619Z,1.34
2022-12-03T16:26:00.600Z,1.39
2022-12-03T16:28:29.950Z,1.35
2022-12-03T16:30:58.062Z,0.77
2022-12-03T16:33:28.170Z,1.09
2022-12-03T16:35:56.270Z,1.20
2022-12-03T16:38:24.369Z,1.17
2022-12-03T16:40:52.286Z,1.16
2022-12-03T16:43:20.344Z,1.10
2022-12-03T16:46:02.529Z,1.14
2022-12-03T16:48:30.919Z,1.38
2022-12-03T16:50:58.885Z,1.25
2022-12-03T16:53:26.856Z,1.23
2022-12-03T16:55:54.811Z,1.06
2022-12-03T16:58:22.847Z,1.11
2022-12-03T17:00:54.153Z,0.97
2022-12-03T17:03:22.767Z,1.14
2022-12-03T17:05:50.989Z,1.06
2022-12-03T17:08:18.995Z,1.08
2022-12-03T17:10:47.198Z,0.89
2022-12-03T17:13:15.203Z,0.90
2022-12-03T17:15:43.249Z,0.97
2022-12-03T17:18:12.763Z,1.12
2022-12-03T17:20:40.706Z,1.42
2022-12-03T17:23:08.774Z,1.19
2022-12-03T17:25:36.810Z,1.05
2022-12-03T17:28:04.921Z,0.94
2022-12-03T17:30:32.889Z,1.09
2022-12-03T17:33:00.856Z,1.02
2022-12-03T17:35:30.220Z,1.10
2022-12-03T17:37:58.176Z,1.28
2022-12-03T17:40:26.132Z,1.31
2022-12-03T17:42:54.187Z,1.10
2022-12-03T17:45:22.193Z,0.91
2022-12-03T17:47:50.091Z,0.97
2022-12-03T17:50:18.140Z,0.97
2022-12-03T17:52:47.519Z,0.99
2022-12-03T17:55:23.926Z,0.83
2022-12-03T17:57:56.171Z,1.02
2022-12-03T18:00:24.576Z,0.93
2022-12-03T18:02:52.556Z,0.81
2022-12-03T18:05:20.790Z,0.58
2022-12-03T18:07:50.177Z,0.86
2022-12-03T18:10:18.380Z,0.93
2022-12-03T18:12:46.457Z,0.70
2022-12-03T18:15:14.390Z,0.97
2022-12-03T18:17:42.356Z,1.02
2022-12-03T18:20:10.731Z,1.17
2022-12-03T18:22:38.941Z,1.06
2022-12-03T18:25:09.393Z,1.07
2022-12-03T18:27:37.478Z,1.25
2022-12-03T18:30:06.497Z,0.93
2022-12-03T18:32:34.456Z,0.89
2022-12-03T18:35:02.383Z,1.22
2022-12-03T18:37:31.231Z,1.33
2022-12-03T18:39:59.959Z,0.76
2022-12-03T18:42:29.303Z,0.59
2022-12-03T18:44:58.293Z,0.42
2022-12-03T18:47:28.995Z,0.32
2022-12-03T18:49:57.782Z,0.20
2022-12-03T18:52:26.089Z,0.08
2022-12-03T18:54:55.191Z,-0.04
2022-12-03T18:57:23.179Z,-0.07
2022-12-03T18:59:52.829Z,-0.11
2022-12-03T19:05:11.006Z,-0.07
2022-12-03T19:07:39.105Z,-0.04
2022-12-03T19:10:08.767Z,-0.04
2022-12-03T19:12:36.952Z,-0.04
2022-12-03T19:15:07.836Z,0.00
2022-12-03T19:17:35.876Z,-0.06
2022-12-03T19:20:05.245Z,-0.11
2022-12-03T19:22:33.239Z,-0.09
2022-12-03T19:25:01.172Z,-0.19
2022-12-03T19:27:31.052Z,-0.27
2022-12-03T19:29:59.579Z,-0.32
2022-12-03T19:32:28.955Z,-0.32
2022-12-03T19:34:56.908Z,-0.34
2022-12-03T19:37:24.904Z,-0.36
2022-12-03T19:39:54.553Z,-0.30
2022-12-03T19:42:22.795Z,-0.28
2022-12-03T19:44:50.762Z,-0.35
2022-12-03T19:47:18.711Z,-0.36
2022-12-03T19:49:48.127Z,-0.44
2022-12-03T19:52:16.094Z,-0.47
2022-12-03T19:54:44.255Z,-0.47
2022-12-03T19:57:12.183Z,-0.48
2022-12-03T19:59:40.142Z,-0.47
2022-12-03T20:02:08.267Z,-0.44
2022-12-03T20:04:36.454Z,-0.47
2022-12-03T20:07:06.695Z,-0.47
2022-12-03T20:09:34.669Z,-0.49
2022-12-03T20:12:02.703Z,-0.46
2022-12-03T20:14:30.882Z,-0.46
2022-12-03T20:16:58.894Z,-0.51
2022-12-03T20:19:26.939Z,-0.55
2022-12-03T20:22:00.790Z,-0.58
2022-12-03T20:24:31.839Z,-0.54
2022-12-03T20:26:59.805Z,-0.65
2022-12-03T20:29:27.850Z,-0.62
2022-12-03T20:31:55.848Z,-0.61
2022-12-03T20:34:23.901Z,-0.65
2022-12-03T20:36:51.828Z,-0.68
2022-12-03T20:39:19.801Z,-0.65
2022-12-03T20:41:49.254Z,-0.79
2022-12-03T20:44:17.182Z,-0.74
2022-12-03T20:46:45.284Z,-0.84
2022-12-03T20:49:13.281Z,-0.74
2022-12-03T20:51:42.372Z,-0.80
2022-12-03T20:54:11.020Z,-0.83
2022-12-03T20:56:41.941Z,-0.79
2022-12-03T20:59:14.111Z,-0.85
2022-12-03T21:01:42.922Z,-0.86
2022-12-03T21:04:14.586Z,-0.88
2022-12-03T21:06:43.061Z,-0.88
2022-12-03T21:09:12.022Z,-0.94
2022-12-03T21:11:42.298Z,-1.08
2022-12-03T21:14:12.432Z,-1.11
2022-12-03T21:19:30.344Z,-1.05
2022-12-03T21:21:58.308Z,-1.08
2022-12-03T21:24:26.302Z,-1.06
2022-12-03T21:26:54.318Z,-1.14
2022-12-03T21:29:23.895Z,-1.17
2022-12-03T21:31:52.167Z,-1.16
2022-12-03T21:34:20.305Z,-1.19
2022-12-03T21:36:48.348Z,-1.22
2022-12-03T21:39:16.489Z,-1.37
2022-12-03T21:42:34.100Z,-1.46
2022-12-03T21:44:35.005Z,-1.54
2022-12-03T21:47:12.407Z,-1.49
2022-12-03T21:49:42.443Z,-1.51
2022-12-03T21:52:10.909Z,-1.46
2022-12-03T21:54:38.885Z,-1.47
2022-12-03T21:57:06.836Z,-1.64
2022-12-03T21:59:36.288Z,-1.57
2022-12-03T22:02:04.540Z,-1.64
2022-12-03T22:04:32.642Z,-1.70
2022-12-03T22:07:00.647Z,-1.79
2022-12-03T22:09:28.893Z,-1.85
2022-12-03T22:11:59.229Z,-1.88
2022-12-03T22:14:27.510Z,-1.89
2022-12-03T22:16:56.899Z,-1.92
2022-12-03T22:19:25.279Z,-1.88
2022-12-03T22:21:53.588Z,-1.97
2022-12-03T22:24:21.591Z,-1.95
2022-12-03T22:26:49.610Z,-1.93
2022-12-03T22:29:17.588Z,-1.93
2022-12-03T22:31:45.666Z,-1.88
2022-12-03T22:34:15.020Z,-1.83
2022-12-03T22:36:42.987Z,-1.79
2022-12-03T22:39:10.966Z,-1.84
2022-12-03T22:41:38.947Z,-1.75
2022-12-03T22:44:07.088Z,-1.71
2022-12-03T22:46:35.069Z,-1.71
2022-12-03T22:49:07.052Z,-1.70
2022-12-03T22:51:37.116Z,-1.68
2022-12-03T22:54:05.548Z,-1.64
2022-12-03T22:56:34.041Z,-1.75
2022-12-03T22:59:02.080Z,-1.81
2022-12-03T23:01:31.691Z,-1.84
2022-12-03T23:03:59.975Z,-1.79
2022-12-03T23:06:29.135Z,-1.78
2022-12-03T23:08:59.832Z,-1.75
2022-12-03T23:11:28.538Z,-1.80
2022-12-03T23:13:56.612Z,-1.75
2022-12-03T23:16:27.215Z,-1.79
2022-12-03T23:18:55.554Z,-1.76
2022-12-03T23:21:29.303Z,-1.72
2022-12-03T23:23:59.716Z,-1.72
2022-12-03T23:26:28.607Z,-1.69
2022-12-03T23:28:57.255Z,-1.67
2022-12-03T23:31:27.934Z,-1.69
2022-12-03T23:33:57.676Z,-1.67
2022-12-03T23:36:27.678Z,-1.60
2022-12-03T23:38:56.170Z,-1.62
2022-12-03T23:41:26.495Z,-1.62
2022-12-03T23:43:54.691Z,-1.64
2022-12-03T23:46:24.967Z,-1.71
2022-12-03T23:48:53.384Z,-1.61
2022-12-03T23:51:23.240Z,-1.68
2022-12-03T23:53:52.758Z,-1.64
2022-12-03T23:56:23.299Z,-1.70
2022-12-03T23:58:52.767Z,-1.67
